Time;durP1;ratioP1;P1;durP2;ratioP2;P2;SDS_P1;SDS_P2;PMS_P1;PMS_P2;Temp;Humidity;BMP_temperature;BMP_pressure;BME280_temperature;BME280_humidity;BME280_pressure;Samples;Min_cycle;Max_cycle;Signal;HPM_P1;HPM_P2
2022/01/16 00:01:23;;;;;;;43.75;21.97;;;0.60;99.90;;;;;;1807091;78;21170;-72
2022/01/16 00:06:30;;;;;;;41.75;21.50;;;0.60;99.90;;;;;;1814785;79;21101;-70
2022/01/16 00:08:57;;;;;;;39.00;20.32;;;0.40;99.90;;;;;;1792477;78;21264;-71
2022/01/16 00:11:25;;;;;;;37.85;20.35;;;0.40;99.90;;;;;;1818464;79;21037;-71
2022/01/16 00:13:52;;;;;;;36.85;21.17;;;0.30;99.90;;;;;;1807093;79;21107;-70
2022/01/16 00:16:19;;;;;;;34.55;20.23;;;0.20;99.90;;;;;;1815583;79;21215;-70
2022/01/16 00:18:50;;;;;;;46.55;25.95;;;0.20;99.90;;;;;;1802988;77;21096;-70
2022/01/16 00:21:17;;;;;;;;;;;0.10;99.90;;;;;;1820612;79;21158;-72
2022/01/16 00:23:45;;;;;;;47.00;24.95;;;0.10;99.90;;;;;;1817801;79;20133;-70
2022/01/16 00:26:12;;;;;;;42.45;25.88;;;0.10;99.90;;;;;;1802765;78;21112;-70
2022/01/16 00:28:39;;;;;;;42.78;24.80;;;0.10;99.90;;;;;;1812906;77;21069;-70
2022/01/16 00:31:07;;;;;;;49.93;24.43;;;0.10;99.90;;;;;;1813540;79;21169;-70
2022/01/16 00:33:38;;;;;;;48.15;24.40;;;0.10;99.90;;;;;;1812098;78;21113;-71
2022/01/16 00:36:03;;;;;;;40.23;23.22;;;0.20;99.90;;;;;;1808945;77;21166;-69
2022/01/16 00:38:31;;;;;;;41.25;24.15;;;0.20;99.90;;;;;;1801726;79;21147;-70
2022/01/16 00:40:58;;;;;;;42.27;24.45;;;0.00;99.90;;;;;;1808222;79;21096;-71
2022/01/16 00:43:25;;;;;;;45.20;24.52;;;-0.10;99.90;;;;;;1810142;78;21072;-71
2022/01/16 00:45:53;;;;;;;43.25;24.05;;;-0.10;99.90;;;;;;1816735;79;21044;-70
2022/01/16 00:48:20;;;;;;;48.48;25.52;;;-0.10;99.90;;;;;;1802155;77;21504;-72
2022/01/16 00:50:47;;;;;;;43.55;24.05;;;0.20;99.90;;;;;;1817650;79;21125;-71
2022/01/16 00:53:14;;;;;;;42.53;23.65;;;0.20;99.90;;;;;;1801218;78;21085;-70
2022/01/16 00:55:42;;;;;;;42.98;25.57;;;0.20;99.90;;;;;;1814704;79;21051;-71
2022/01/16 00:58:09;;;;;;;45.78;23.55;;;0.10;99.90;;;;;;1816558;79;21288;-71
2022/01/16 01:00:36;;;;;;;44.63;23.02;;;0.20;99.90;;;;;;1814368;78;21096;-71
2022/01/16 01:03:05;;;;;;;48.52;23.83;;;0.10;99.90;;;;;;1818532;79;21203;-70
2022/01/16 01:05:34;;;;;;;44.25;24.35;;;0.10;99.90;;;;;;1811405;79;21111;-71
2022/01/16 01:08:02;;;;;;;39.53;22.50;;;0.10;99.90;;;;;;1815282;79;21115;-71
2022/01/16 01:10:33;;;;;;;38.53;21.10;;;0.10;99.90;;;;;;1803054;79;21100;-71
2022/01/16 01:15:48;;;;;;;34.10;19.42;;;0.30;99.90;;;;;;1801278;79;21223;-72
2022/01/16 01:18:15;;;;;;;41.33;20.92;;;0.30;99.90;;;;;;1786795;78;21461;-72
2022/01/16 01:20:43;;;;;;;41.35;21.50;;;0.40;99.90;;;;;;1801724;78;21175;-71
2022/01/16 01:23:11;;;;;;;37.63;21.57;;;0.30;99.90;;;;;;1806139;78;21607;-70
2022/01/16 01:25:39;;;;;;;41.28;21.48;;;0.30;99.90;;;;;;1817703;77;21076;-71
2022/01/16 01:28:08;;;;;;;41.55;21.27;;;0.40;99.90;;;;;;1804988;77;21474;-70
2022/01/16 01:30:37;;;;;;;39.00;21.42;;;0.30;99.90;;;;;;1808995;78;21499;-71
2022/01/16 01:33:04;;;;;;;36.42;21.17;;;0.30;99.90;;;;;;1817768;79;21091;-72
2022/01/16 01:35:38;;;;;;;41.68;22.27;;;0.30;99.90;;;;;;1805629;78;21093;-70
2022/01/16 01:38:01;;;;;;;30.68;18.65;;;0.00;99.90;;;;;;1792062;79;21210;-71
2022/01/16 01:40:28;;;;;;;35.13;19.48;;;-0.10;99.90;;;;;;1794874;78;21087;-71
2022/01/16 01:51:14;;;;;;;33.85;19.42;;;-0.10;99.90;;;;;;1817683;79;21096;-70
2022/01/16 01:53:42;;;;;;;44.15;20.23;;;0.00;99.90;;;;;;1817742;78;21063;-71
2022/01/16 01:56:12;;;;;;;35.58;20.90;;;0.00;99.90;;;;;;1808138;79;21080;-70
2022/01/16 01:58:40;;;;;;;34.60;19.42;;;-0.20;99.90;;;;;;1798405;79;21166;-70
2022/01/16 02:01:08;;;;;;;33.65;20.08;;;-0.30;99.90;;;;;;1816839;79;21397;-70
2022/01/16 02:06:19;;;;;;;36.40;20.32;;;-0.20;99.90;;;;;;1814670;79;21173;-70
2022/01/16 02:08:51;;;;;;;36.28;19.45;;;-0.20;99.90;;;;;;1792573;78;21093;-71
2022/01/16 02:11:19;;;;;;;34.85;20.12;;;-0.30;99.90;;;;;;1799673;79;21167;-71
2022/01/16 02:14:22;;;;;;;33.58;19.25;;;-0.30;99.90;;;;;;1816396;79;21122;-72
2022/01/16 02:30:41;;;;;;;38.63;20.27;;;-0.20;99.90;;;;;;1775314;78;21172;-70
2022/01/16 02:35:13;;;;;;;39.92;20.37;;;-0.20;99.90;;;;;;1817089;78;21112;-70
2022/01/16 02:37:41;;;;;;;42.00;21.50;;;-0.20;99.90;;;;;;1807800;79;21642;-72
2022/01/16 02:40:17;;;;;;;40.05;21.60;;;-0.10;99.90;;;;;;1815176;78;21174;-70
2022/01/16 02:42:41;;;;;;;;;;;-0.10;99.90;;;;;;1802638;79;21108;-70
2022/01/16 02:45:15;;;;;;;40.30;21.00;;;-0.20;99.90;;;;;;1812723;78;20340;-71
2022/01/16 02:47:36;;;;;;;40.55;20.52;;;-0.20;99.90;;;;;;1795143;78;21233;-70
2022/01/16 02:50:04;;;;;;;42.03;21.35;;;-0.20;99.90;;;;;;1812991;79;21546;-71
2022/01/16 02:52:31;;;;;;;41.88;21.68;;;-0.20;99.90;;;;;;1812528;78;21134;-70
2022/01/16 02:55:00;;;;;;;40.45;21.55;;;-0.30;99.90;;;;;;1801772;78;21165;-72
2022/01/16 02:57:29;;;;;;;38.78;22.13;;;-0.20;99.90;;;;;;1786714;78;21572;-70
2022/01/16 02:59:57;;;;;;;41.68;22.35;;;-0.30;99.90;;;;;;1818739;79;21087;-70
2022/01/16 03:02:25;;;;;;;52.35;24.57;;;-0.20;99.90;;;;;;1817056;79;21165;-70
2022/01/16 03:04:53;;;;;;;40.67;22.73;;;-0.10;99.90;;;;;;1815041;79;21060;-71
2022/01/16 03:07:22;;;;;;;43.95;22.13;;;-0.10;99.90;;;;;;1813392;79;21107;-71
2022/01/16 03:10:36;;;;;;;41.00;22.58;;;-0.20;99.90;;;;;;1813995;77;21177;-72
2022/01/16 03:12:49;;;;;;;53.25;23.38;;;-0.20;99.90;;;;;;1807391;78;21442;-71
2022/01/16 03:15:17;;;;;;;46.75;22.25;;;-0.20;99.90;;;;;;1815556;78;21076;-71
2022/01/16 03:23:15;;;;;;;60.48;25.60;;;-0.40;99.90;;;;;;1817165;79;21167;-71
2022/01/16 03:25:43;;;;;;;47.35;23.83;;;-0.40;99.90;;;;;;1817132;78;21650;-70
2022/01/16 03:28:10;;;;;;;42.48;22.15;;;-0.40;99.90;;;;;;1808686;78;21091;-71
2022/01/16 03:30:38;;;;;;;43.83;23.50;;;-0.40;99.90;;;;;;1808238;78;21076;-72
2022/01/16 03:33:05;;;;;;;49.67;24.43;;;-0.40;99.90;;;;;;1814097;79;21163;-71
2022/01/16 03:35:33;;;;;;;49.55;22.93;;;-0.50;99.90;;;;;;1812435;79;21455;-70
2022/01/16 03:38:01;;;;;;;49.00;23.50;;;-0.50;99.90;;;;;;1804598;78;21591;-71
2022/01/16 03:40:28;;;;;;;47.60;22.65;;;-0.50;99.90;;;;;;1819566;78;21482;-71
2022/01/16 03:43:09;;;;;;;86.32;25.25;;;-0.50;99.90;;;;;;1796061;77;21297;-71
2022/01/16 03:45:27;;;;;;;63.38;24.67;;;-0.50;99.90;;;;;;1816013;79;21082;-71
2022/01/16 03:47:55;;;;;;;54.20;23.10;;;-0.60;99.90;;;;;;1802896;78;21163;-70
2022/01/16 03:50:22;;;;;;;63.38;24.57;;;-0.70;99.90;;;;;;1800416;78;21117;-71
2022/01/16 03:52:50;;;;;;;54.03;22.80;;;-0.70;99.90;;;;;;1815331;79;21024;-70
2022/01/16 03:55:17;;;;;;;50.23;24.50;;;-0.70;99.90;;;;;;1804913;78;21088;-71
2022/01/16 03:57:44;;;;;;;49.33;23.47;;;-0.70;99.90;;;;;;1802605;79;21182;-71
2022/01/16 04:00:12;;;;;;;54.42;23.18;;;-0.70;99.90;;;;;;1814811;79;21099;-70
2022/01/16 04:02:39;;;;;;;89.15;25.70;;;-0.70;99.90;;;;;;1787948;79;21120;-70
2022/01/16 04:05:07;;;;;;;53.55;22.67;;;-0.80;99.90;;;;;;1817029;79;21134;-70
2022/01/16 04:07:35;;;;;;;100.58;24.80;;;-0.80;99.90;;;;;;1811864;79;21100;-71
2022/01/16 04:10:07;;;;;;;76.55;22.73;;;-0.90;99.90;;;;;;1813335;79;21150;-70
2022/01/16 04:12:37;;;;;;;54.67;22.85;;;-1.00;99.90;;;;;;1808268;77;21223;-71
2022/01/16 04:17:34;;;;;;;68.22;23.05;;;-1.00;99.90;;;;;;1799891;79;21130;-71
2022/01/16 04:20:01;;;;;;;65.75;24.67;;;-1.00;99.90;;;;;;1815190;79;21531;-70
2022/01/16 04:22:29;;;;;;;62.03;23.35;;;-1.00;99.90;;;;;;1802788;79;21074;-71
2022/01/16 04:24:58;;;;;;;55.58;22.62;;;-1.00;99.90;;;;;;1817441;79;21451;-71
2022/01/16 04:27:25;;;;;;;75.90;25.27;;;-0.90;99.90;;;;;;1815952;78;21076;-71
2022/01/16 04:29:52;;;;;;;71.92;25.08;;;-1.00;99.90;;;;;;1817879;79;21176;-71
2022/01/16 04:32:19;;;;;;;55.48;23.22;;;-0.90;99.90;;;;;;1813554;78;21472;-71
2022/01/16 04:34:47;;;;;;;56.30;23.83;;;-0.90;99.90;;;;;;1797221;79;21104;-71
2022/01/16 04:37:14;;;;;;;46.30;23.52;;;-0.90;99.90;;;;;;1812510;79;21479;-70
2022/01/16 04:39:49;;;;;;;44.25;22.50;;;-1.00;99.90;;;;;;1818033;78;21197;-71
2022/01/16 04:44:55;;;;;;;38.83;21.73;;;-0.90;99.90;;;;;;1817674;79;21084;-70
2022/01/16 04:47:23;;;;;;;41.00;22.65;;;-0.80;99.90;;;;;;1818276;79;21088;-71
2022/01/16 04:49:50;;;;;;;40.05;20.92;;;-0.90;99.90;;;;;;1796892;77;21091;-71
2022/01/16 04:52:17;;;;;;;40.30;22.13;;;-0.80;99.90;;;;;;1807582;78;21264;-71
2022/01/16 04:54:45;;;;;;;63.02;21.97;;;-0.80;99.90;;;;;;1803086;77;21100;-71
2022/01/16 04:57:13;;;;;;;56.48;22.02;;;-0.80;99.90;;;;;;1812737;79;21095;-71
2022/01/16 04:59:41;;;;;;;44.77;20.48;;;-1.20;99.90;;;;;;1814373;79;21080;-70
2022/01/16 05:02:08;;;;;;;49.90;20.48;;;-1.20;99.90;;;;;;1802987;79;21209;-70
2022/01/16 05:04:36;;;;;;;41.08;21.33;;;-1.10;99.90;;;;;;1803278;79;21178;-71
2022/01/16 05:07:03;;;;;;;34.75;20.12;;;-1.20;99.90;;;;;;1817578;79;21085;-71
2022/01/16 05:09:30;;;;;;;43.70;20.05;;;-1.20;99.90;;;;;;1796965;79;21069;-70
2022/01/16 05:12:01;;;;;;;41.05;20.43;;;-1.30;99.90;;;;;;1805458;78;21487;-72
2022/01/16 05:17:12;;;;;;;36.40;20.60;;;-1.40;99.90;;;;;;1817745;79;21164;-70
2022/01/16 05:19:39;;;;;;;39.95;20.62;;;-1.40;99.90;;;;;;1803209;78;21108;-70
2022/01/16 05:22:06;;;;;;;43.25;21.95;;;-1.30;99.90;;;;;;1815582;79;21066;-70
2022/01/16 05:24:35;;;;;;;35.88;20.62;;;-1.40;99.90;;;;;;1793939;78;21589;-71
2022/01/16 05:27:02;;;;;;;44.90;20.57;;;-1.50;99.90;;;;;;1815632;79;21492;-71
2022/01/16 05:29:29;;;;;;;41.08;20.82;;;-1.50;99.90;;;;;;1808212;78;21182;-71
2022/01/16 05:31:57;;;;;;;34.30;20.20;;;-1.40;99.90;;;;;;1818142;79;21076;-71
2022/01/16 05:34:26;;;;;;;35.25;19.95;;;-1.20;99.90;;;;;;1813503;78;21169;-71
2022/01/16 05:36:53;;;;;;;32.63;18.37;;;-1.10;99.90;;;;;;1807718;78;21484;-71
2022/01/16 05:39:20;;;;;;;32.58;18.80;;;-1.10;99.90;;;;;;1808253;78;21099;-72
2022/01/16 05:41:47;;;;;;;32.23;19.20;;;-1.20;99.90;;;;;;1796818;79;21166;-71
2022/01/16 05:44:15;;;;;;;29.50;17.87;;;-1.30;99.90;;;;;;1807047;77;21213;-71
2022/01/16 05:46:43;;;;;;;32.63;19.30;;;-1.20;99.90;;;;;;1801639;78;21076;-71
2022/01/16 05:49:10;;;;;;;33.53;17.98;;;-1.20;99.90;;;;;;1808207;79;21244;-72
2022/01/16 05:51:37;;;;;;;31.25;17.65;;;-1.20;99.90;;;;;;1807878;78;21100;-71
2022/01/16 05:54:05;;;;;;;31.20;18.17;;;-1.30;99.90;;;;;;1813699;79;21047;-71
2022/01/16 05:56:32;;;;;;;30.15;17.95;;;-1.50;99.90;;;;;;1807269;78;21204;-71
2022/01/16 05:58:59;;;;;;;26.12;16.57;;;-1.50;99.90;;;;;;1817244;79;21084;-70
2022/01/16 06:01:26;;;;;;;31.62;18.27;;;-1.60;99.90;;;;;;1796458;79;21300;-71
2022/01/16 06:03:54;;;;;;;30.35;18.80;;;-1.50;99.90;;;;;;1816369;79;21044;-72
2022/01/16 06:06:21;;;;;;;33.08;18.00;;;-1.40;99.90;;;;;;1805566;79;21092;-71
2022/01/16 06:08:48;;;;;;;36.17;18.02;;;-1.40;99.90;;;;;;1816506;79;21093;-71
2022/01/16 06:11:16;;;;;;;30.60;17.80;;;-1.40;99.90;;;;;;1813819;78;21107;-71
2022/01/16 06:13:43;;;;;;;32.53;18.82;;;-1.40;99.90;;;;;;1812706;79;21111;-71
2022/01/16 06:16:11;;;;;;;24.92;16.52;;;-1.50;99.90;;;;;;1807455;79;21068;-71
2022/01/16 06:18:38;;;;;;;34.15;18.17;;;-1.50;99.90;;;;;;1806636;78;21157;-71
2022/01/16 06:21:05;;;;;;;32.30;19.12;;;-1.40;99.90;;;;;;1813329;77;21072;-69
2022/01/16 06:23:32;;;;;;;32.60;18.75;;;-1.40;99.90;;;;;;1794512;78;21170;-69
2022/01/16 06:26:00;;;;;;;27.00;16.82;;;-1.50;99.90;;;;;;1813870;79;21032;-71
2022/01/16 06:28:31;;;;;;;33.28;18.57;;;-1.50;99.90;;;;;;1813517;79;21177;-71
2022/01/16 06:30:59;;;;;;;34.08;18.35;;;-1.50;99.90;;;;;;1817647;79;21103;-71
2022/01/16 06:33:27;;;;;;;28.83;18.80;;;-1.50;99.90;;;;;;1816065;79;21099;-72
2022/01/16 06:35:55;;;;;;;28.25;18.27;;;-1.50;99.90;;;;;;1814895;79;21138;-71
2022/01/16 06:38:22;;;;;;;35.00;19.87;;;-1.50;99.90;;;;;;1808469;78;21213;-71
2022/01/16 06:40:50;;;;;;;31.05;18.42;;;-1.40;99.90;;;;;;1816859;79;21041;-70
2022/01/16 06:43:17;;;;;;;35.68;18.57;;;-1.50;99.90;;;;;;1789557;78;21093;-71
2022/01/16 06:45:44;;;;;;;32.43;18.93;;;-1.60;99.90;;;;;;1814512;79;21048;-71
2022/01/16 06:48:11;;;;;;;31.15;18.07;;;-1.60;99.90;;;;;;1803006;77;21328;-70
2022/01/16 06:50:39;;;;;;;30.50;18.77;;;-1.60;99.90;;;;;;1818807;79;21047;-70
2022/01/16 06:53:06;;;;;;;44.40;18.02;;;-1.70;99.90;;;;;;1813481;79;21099;-70
2022/01/16 06:55:33;;;;;;;49.83;20.85;;;-1.70;99.90;;;;;;1807311;78;21095;-69
2022/01/16 06:58:01;;;;;;;34.88;19.40;;;-1.80;99.90;;;;;;1814701;79;21064;-72
2022/01/16 07:00:28;;;;;;;28.25;18.12;;;-1.70;99.90;;;;;;1810973;78;21169;-70
2022/01/16 07:02:55;;;;;;;33.25;19.02;;;-1.60;99.90;;;;;;1815284;79;21056;-69
2022/01/16 07:05:23;;;;;;;31.55;18.35;;;-1.70;99.90;;;;;;1790451;78;21077;-70
2022/01/16 07:07:51;;;;;;;30.43;17.73;;;-1.60;99.90;;;;;;1812789;79;21141;-69
2022/01/16 07:10:19;;;;;;;34.45;18.73;;;-1.60;99.90;;;;;;1808802;78;21451;-70
2022/01/16 07:12:47;;;;;;;32.65;19.55;;;-1.70;99.90;;;;;;1815993;79;21053;-69
2022/01/16 07:15:14;;;;;;;40.88;20.40;;;-1.80;99.90;;;;;;1790754;78;21162;-70
2022/01/16 07:17:41;;;;;;;33.20;18.73;;;-1.80;99.90;;;;;;1802023;79;21143;-70
2022/01/16 07:20:10;;;;;;;28.75;17.45;;;-1.80;99.90;;;;;;1807933;79;21167;-70
2022/01/16 07:22:37;;;;;;;27.60;17.05;;;-1.80;99.90;;;;;;1802197;78;21142;-72
2022/01/16 07:25:05;;;;;;;30.37;17.67;;;-1.90;99.90;;;;;;1806905;78;21170;-70
2022/01/16 07:27:32;;;;;;;33.20;18.27;;;-1.90;99.90;;;;;;1808554;79;21527;-70
2022/01/16 07:29:59;;;;;;;31.90;19.02;;;-1.90;99.90;;;;;;1804626;79;21069;-70
2022/01/16 07:32:27;;;;;;;29.27;18.25;;;-2.00;99.90;;;;;;1815216;79;21048;-70
2022/01/16 07:34:54;;;;;;;30.82;17.30;;;-2.00;99.90;;;;;;1802839;79;21550;-70
2022/01/16 07:37:21;;;;;;;39.13;19.00;;;-1.90;99.90;;;;;;1817189;79;21044;-71
2022/01/16 07:39:49;;;;;;;29.75;19.02;;;-1.90;99.90;;;;;;1801348;79;21585;-70
2022/01/16 07:42:16;;;;;;;27.07;18.23;;;-1.90;99.90;;;;;;1804264;79;21091;-70
2022/01/16 07:44:43;;;;;;;38.65;19.02;;;-1.90;99.90;;;;;;1815861;79;21519;-70
2022/01/16 07:47:10;;;;;;;27.95;17.73;;;-2.00;99.90;;;;;;1805979;78;21068;-70
2022/01/16 07:49:38;;;;;;;30.70;17.10;;;-2.00;99.90;;;;;;1796857;79;21484;-70
2022/01/16 07:52:05;;;;;;;30.45;17.60;;;-1.90;99.90;;;;;;1819243;79;21142;-70
2022/01/16 07:54:32;;;;;;;33.18;19.82;;;-1.70;99.90;;;;;;1818036;79;21446;-69
2022/01/16 07:57:00;;;;;;;30.77;17.48;;;-1.70;99.90;;;;;;1803814;77;21100;-70
2022/01/16 07:59:27;;;;;;;31.15;18.10;;;-1.60;99.90;;;;;;1817604;79;21417;-70
2022/01/16 08:01:54;;;;;;;25.85;16.27;;;-1.60;99.90;;;;;;1806923;78;21228;-70
2022/01/16 08:04:22;;;;;;;31.55;17.75;;;-1.60;99.90;;;;;;1813423;78;21482;-70
2022/01/16 08:06:49;;;;;;;33.25;19.15;;;-1.60;99.90;;;;;;1802451;78;21097;-70
2022/01/16 08:09:16;;;;;;;31.77;17.85;;;-1.70;99.90;;;;;;1812756;77;21103;-69
2022/01/16 08:11:44;;;;;;;29.63;17.67;;;-1.60;99.90;;;;;;1811467;78;21572;-70
2022/01/16 08:14:11;;;;;;;29.30;18.07;;;-1.60;99.90;;;;;;1811701;78;21169;-70
2022/01/16 08:16:38;;;;;;;27.62;17.77;;;-1.60;99.90;;;;;;1793721;78;21477;-72
2022/01/16 08:19:06;;;;;;;33.58;17.90;;;-1.60;99.90;;;;;;1815271;79;21043;-69
2022/01/16 08:21:33;;;;;;;27.80;17.55;;;-1.40;99.90;;;;;;1802028;78;21093;-70
2022/01/16 08:24:03;;;;;;;31.68;16.40;;;-1.30;99.90;;;;;;1812461;79;21075;-70
2022/01/16 08:26:30;;;;;;;23.05;16.82;;;-1.20;99.90;;;;;;1802910;77;21492;-70
2022/01/16 08:28:57;;;;;;;28.85;17.57;;;-1.10;99.90;;;;;;1799641;78;21488;-70
2022/01/16 08:31:25;;;;;;;30.08;17.23;;;-1.30;99.90;;;;;;1817614;79;21075;-74
2022/01/16 08:33:52;;;;;;;28.52;16.73;;;-1.20;99.90;;;;;;1814407;78;21107;-75
2022/01/16 08:36:21;;;;;;;28.32;17.12;;;-1.20;99.90;;;;;;1791506;77;21151;-74
2022/01/16 08:38:49;;;;;;;26.77;17.48;;;-1.10;99.90;;;;;;1817900;79;21440;-74
2022/01/16 08:41:18;;;;;;;25.72;17.62;;;-1.10;99.90;;;;;;1805759;77;21177;-75
2022/01/16 08:43:45;;;;;;;35.03;18.42;;;-1.10;99.90;;;;;;1806587;78;21186;-75
2022/01/16 08:46:13;;;;;;;27.37;17.80;;;-1.30;99.90;;;;;;1797631;79;21095;-76
2022/01/16 08:48:40;;;;;;;32.08;17.85;;;-1.10;99.90;;;;;;1793958;79;21479;-76
2022/01/16 08:51:09;;;;;;;27.58;17.82;;;-0.90;99.90;;;;;;1810870;77;21068;-75
2022/01/16 08:53:38;;;;;;;27.30;17.05;;;-0.70;99.90;;;;;;1802104;78;21117;-75
2022/01/16 08:56:07;;;;;;;27.85;18.10;;;-0.50;99.90;;;;;;1811721;79;21157;-75
2022/01/16 08:58:34;;;;;;;26.82;17.57;;;-0.60;99.90;;;;;;1807352;77;21508;-76
2022/01/16 09:01:02;;;;;;;24.77;16.45;;;-0.70;99.90;;;;;;1803290;79;21091;-75
2022/01/16 09:03:31;;;;;;;28.73;17.05;;;-0.60;99.90;;;;;;1788706;78;21108;-78
2022/01/16 09:05:58;;;;;;;26.33;17.37;;;-0.40;99.90;;;;;;1783795;79;21941;-76
2022/01/16 09:08:25;;;;;;;29.57;18.23;;;-0.40;99.90;;;;;;1795949;79;21159;-75
2022/01/16 09:10:53;;;;;;;28.07;17.62;;;-0.30;99.90;;;;;;1808522;77;21538;-75
2022/01/16 09:13:21;;;;;;;29.40;17.73;;;-0.40;99.90;;;;;;1797199;79;21542;-77
2022/01/16 09:15:49;;;;;;;30.32;17.95;;;-0.60;99.90;;;;;;1801083;78;21096;-74
2022/01/16 09:18:17;;;;;;;32.50;18.45;;;-0.40;99.90;;;;;;1814510;79;21550;-75
2022/01/16 09:20:46;;;;;;;33.10;18.23;;;-0.40;99.90;;;;;;1817125;79;21220;-74
2022/01/16 09:23:13;;;;;;;26.62;17.50;;;-0.20;99.90;;;;;;1814853;77;21202;-77
2022/01/16 09:25:41;;;;;;;24.40;16.30;;;-0.10;99.90;;;;;;1791194;78;21537;-76
2022/01/16 09:28:08;;;;;;;30.45;17.65;;;0.00;99.90;;;;;;1802480;78;21072;-75
2022/01/16 09:30:36;;;;;;;23.62;16.00;;;0.10;99.90;;;;;;1813918;78;21169;-76
2022/01/16 09:33:04;;;;;;;28.87;16.90;;;0.10;99.90;;;;;;1799870;77;21082;-76
2022/01/16 09:35:33;;;;;;;30.23;17.07;;;0.00;99.90;;;;;;1811769;77;21103;-76
2022/01/16 09:38:04;;;;;;;24.60;16.25;;;0.20;99.90;;;;;;1814869;79;21092;-74
2022/01/16 09:40:32;;;;;;;;;;;0.30;99.90;;;;;;1810212;77;21208;-75
2022/01/16 09:42:59;;;;;;;31.77;16.50;;;0.20;99.90;;;;;;1787128;78;20374;-78
2022/01/16 09:45:27;;;;;;;23.57;16.30;;;0.10;99.90;;;;;;1813818;77;21084;-75
2022/01/16 09:47:54;;;;;;;27.55;16.25;;;0.40;99.90;;;;;;1806844;78;21150;-73
2022/01/16 09:50:24;;;;;;;23.15;15.23;;;0.90;99.90;;;;;;1807064;79;21109;-74
2022/01/16 09:52:51;;;;;;;27.35;17.15;;;1.10;99.90;;;;;;1815609;79;21080;-74
2022/01/16 09:55:20;;;;;;;36.20;17.57;;;1.30;99.90;;;;;;1811052;78;21489;-75
2022/01/16 09:57:48;;;;;;;24.25;16.10;;;1.40;99.90;;;;;;1813271;79;21095;-74
2022/01/16 10:00:17;;;;;;;23.22;17.02;;;1.30;99.90;;;;;;1819774;77;21570;-74
2022/01/16 10:02:44;;;;;;;37.65;17.73;;;1.50;99.90;;;;;;1814210;77;21107;-74
2022/01/16 10:05:30;;;;;;;23.35;15.78;;;2.10;99.90;;;;;;1795325;78;21234;-74
2022/01/16 10:08:02;;;;;;;23.95;15.98;;;1.90;99.90;;;;;;1819958;79;21510;-75
2022/01/16 10:10:32;;;;;;;23.15;15.90;;;1.60;99.90;;;;;;1810118;77;21072;-75
2022/01/16 10:13:07;;;;;;;30.50;17.87;;;1.40;99.90;;;;;;1795949;79;21585;-76
2022/01/16 10:15:34;;;;;;;23.87;16.17;;;1.40;99.90;;;;;;1816400;79;21181;-75
2022/01/16 10:18:04;;;;;;;30.00;18.48;;;1.60;99.90;;;;;;1790642;77;21090;-76
2022/01/16 10:20:34;;;;;;;21.90;15.93;;;1.90;99.90;;;;;;1792741;79;21078;-75
2022/01/16 10:23:02;;;;;;;26.82;15.25;;;2.10;99.90;;;;;;1805904;78;21158;-75
2022/01/16 10:25:41;;;;;;;26.23;16.62;;;2.10;99.90;;;;;;1797753;78;21462;-74
2022/01/16 10:28:20;;;;;;;26.27;17.52;;;2.10;99.90;;;;;;1815775;79;21050;-75
2022/01/16 10:30:50;;;;;;;28.17;15.98;;;1.90;99.90;;;;;;1784221;79;21072;-75
2022/01/16 10:33:21;;;;;;;28.95;17.25;;;2.50;99.90;;;;;;1816426;78;21432;-75
2022/01/16 10:35:50;;;;;;;33.78;17.25;;;2.90;99.90;;;;;;1802967;79;21076;-74
2022/01/16 10:38:26;;;;;;;25.92;17.27;;;2.90;99.90;;;;;;1817590;78;21245;-75
2022/01/16 10:40:57;;;;;;;25.02;16.52;;;2.90;99.90;;;;;;1814998;79;21068;-75
2022/01/16 10:43:40;;;;;;;27.20;16.40;;;3.20;99.90;;;;;;1812541;78;21136;-75
2022/01/16 10:46:08;;;;;;;26.02;15.38;;;3.40;99.90;;;;;;1816704;79;21145;-77
2022/01/16 10:48:35;;;;;;;29.40;16.00;;;3.50;99.90;;;;;;1807369;79;21096;-76
2022/01/16 10:51:02;;;;;;;22.67;15.90;;;3.40;99.90;;;;;;1816494;79;21522;-74
2022/01/16 10:53:32;;;;;;;26.10;16.60;;;3.30;99.90;;;;;;1810209;78;21573;-72
2022/01/16 10:56:04;;;;;;;27.30;16.07;;;2.90;99.90;;;;;;1817668;79;21102;-75
2022/01/16 10:58:39;;;;;;;31.50;16.73;;;2.90;99.90;;;;;;1805655;77;21174;-76
2022/01/16 11:01:14;;;;;;;24.12;16.57;;;2.80;99.90;;;;;;1807558;77;21184;-75
2022/01/16 11:03:47;;;;;;;27.45;16.87;;;2.80;99.90;;;;;;1817501;79;21055;-75
2022/01/16 11:06:21;;;;;;;26.87;17.17;;;3.10;99.90;;;;;;1817791;78;21225;-75
2022/01/16 11:08:57;;;;;;;28.90;16.77;;;3.30;99.90;;;;;;1786495;77;21089;-74
2022/01/16 11:11:28;;;;;;;25.05;16.70;;;3.00;99.90;;;;;;1817666;79;21100;-73
2022/01/16 11:14:00;;;;;;;27.80;17.75;;;3.00;99.90;;;;;;1813016;78;21077;-74
2022/01/16 11:16:26;;;;;;;27.30;17.05;;;2.80;99.90;;;;;;1797164;77;21166;-75
2022/01/16 11:18:53;;;;;;;32.35;17.12;;;3.10;99.90;;;;;;1779959;79;21097;-75
2022/01/16 11:21:43;;;;;;;28.00;16.50;;;3.10;99.90;;;;;;1808060;79;21475;-74
2022/01/16 11:26:23;;;;;;;25.02;16.52;;;3.20;99.90;;;;;;1802552;78;21645;-75
2022/01/16 11:28:55;;;;;;;30.02;17.60;;;3.20;99.90;;;;;;1807691;78;21092;-74
2022/01/16 11:31:22;;;;;;;35.58;17.98;;;2.90;99.90;;;;;;1801380;77;21095;-74
2022/01/16 11:33:50;;;;;;;25.12;17.23;;;2.80;99.90;;;;;;1813921;79;21059;-75
2022/01/16 11:36:20;;;;;;;31.50;19.50;;;2.70;99.90;;;;;;1818401;77;21107;-75
2022/01/16 11:38:52;;;;;;;29.72;18.05;;;2.50;99.90;;;;;;1791683;78;21096;-75
2022/01/16 11:41:32;;;;;;;29.07;17.42;;;2.50;99.90;;;;;;1815557;79;21462;-73
2022/01/16 11:43:55;;;;;;;27.02;18.62;;;2.70;99.90;;;;;;1817581;78;21115;-74
2022/01/16 11:46:26;;;;;;;31.33;19.15;;;2.90;99.90;;;;;;1819403;77;21138;-74
2022/01/16 11:49:03;;;;;;;30.32;19.50;;;2.90;99.90;;;;;;1811704;78;21107;-74
2022/01/16 11:51:39;;;;;;;25.20;18.20;;;3.10;99.90;;;;;;1803046;79;21104;-73
2022/01/16 11:54:15;;;;;;;32.35;19.32;;;3.10;99.90;;;;;;1809579;79;21512;-73
2022/01/16 11:56:46;;;;;;;33.20;20.37;;;3.10;99.90;;;;;;1815246;78;21092;-74
2022/01/16 11:59:20;;;;;;;30.52;19.30;;;3.10;99.90;;;;;;1817912;78;21217;-74
2022/01/16 12:01:59;;;;;;;32.88;18.80;;;3.10;99.90;;;;;;1811444;78;21076;-74
2022/01/16 12:04:33;;;;;;;26.85;17.25;;;3.20;99.90;;;;;;1818071;79;21467;-74
2022/01/16 12:07:20;;;;;;;29.70;18.62;;;3.40;99.90;;;;;;1813503;79;21165;-74
2022/01/16 12:09:57;;;;;;;30.27;17.87;;;3.50;99.90;;;;;;1811739;79;21103;-74
2022/01/16 12:12:21;;;;;;;29.18;19.10;;;3.50;99.90;;;;;;1793647;78;21080;-74
2022/01/16 12:14:51;;;;;;;26.15;18.30;;;3.60;99.90;;;;;;1817221;79;21055;-75
2022/01/16 12:17:45;;;;;;;28.55;18.55;;;3.50;99.90;;;;;;1813962;78;21450;-75
2022/01/16 12:20:17;;;;;;;38.15;18.65;;;3.40;99.90;;;;;;1810897;77;21152;-75
2022/01/16 12:22:53;;;;;;;31.23;19.32;;;3.40;99.90;;;;;;1818047;79;21099;-75
2022/01/16 12:25:41;;;;;;;31.57;20.35;;;3.30;99.90;;;;;;1811514;78;21100;-75
2022/01/16 12:28:14;;;;;;;37.10;19.62;;;3.30;99.90;;;;;;1818715;79;21056;-75
2022/01/16 12:31:02;;;;;;;31.68;21.65;;;3.20;99.90;;;;;;1797892;77;21084;-75
2022/01/16 12:33:52;;;;;;;46.80;21.77;;;3.10;99.90;;;;;;1811683;78;21242;-75
2022/01/16 12:36:18;;;;;;;26.68;19.10;;;3.00;99.90;;;;;;1790778;78;21402;-75
2022/01/16 12:38:47;;;;;;;35.55;20.30;;;3.00;99.90;;;;;;1804759;79;21121;-75
2022/01/16 12:41:17;;;;;;;34.48;19.30;;;3.00;99.90;;;;;;1808681;79;21081;-74
2022/01/16 12:43:50;;;;;;;37.70;21.95;;;3.10;99.90;;;;;;1790611;78;21108;-75
2022/01/16 12:46:21;;;;;;;32.83;20.35;;;2.80;99.90;;;;;;1816202;79;21036;-74
2022/01/16 12:48:52;;;;;;;36.83;21.12;;;2.90;99.90;;;;;;1813646;78;21483;-75
2022/01/16 12:51:28;;;;;;;36.88;20.45;;;2.90;99.90;;;;;;1810272;78;21453;-75
2022/01/16 12:53:58;;;;;;;31.37;20.08;;;2.90;99.90;;;;;;1814210;77;21588;-75
2022/01/16 12:56:31;;;;;;;39.15;20.55;;;3.00;99.90;;;;;;1808414;78;21161;-75
2022/01/16 12:59:12;;;;;;;37.03;21.07;;;3.00;99.90;;;;;;1818092;78;21077;-76
2022/01/16 13:01:49;;;;;;;29.48;20.37;;;3.00;99.90;;;;;;1801199;78;21519;-74
2022/01/16 13:04:27;;;;;;;33.00;20.50;;;3.20;99.90;;;;;;1805865;78;21097;-75
2022/01/16 13:06:57;;;;;;;36.03;20.72;;;3.40;99.90;;;;;;1817024;79;21122;-74
2022/01/16 13:09:24;;;;;;;29.30;19.62;;;3.50;99.90;;;;;;1807193;78;21179;-74
2022/01/16 13:11:53;;;;;;;36.38;20.35;;;3.60;99.90;;;;;;1813426;79;21436;-75
2022/01/16 13:14:27;;;;;;;31.90;19.15;;;3.70;99.90;;;;;;1800128;79;21163;-76
2022/01/16 13:16:53;;;;;;;27.65;17.35;;;3.90;99.90;;;;;;1790110;78;21225;-75
2022/01/16 13:19:28;;;;;;;25.97;17.70;;;4.00;99.90;;;;;;1796629;78;21087;-74
2022/01/16 13:22:11;;;;;;;29.63;18.00;;;4.10;99.90;;;;;;1804981;78;21129;-75
2022/01/16 13:24:55;;;;;;;32.45;18.57;;;4.00;99.90;;;;;;1815739;79;21119;-75
2022/01/16 13:27:25;;;;;;;29.15;18.00;;;4.10;99.90;;;;;;1808369;77;21112;-74
2022/01/16 13:30:23;;;;;;;25.92;16.80;;;4.20;99.90;;;;;;1813812;79;21046;-74
2022/01/16 13:32:42;;;;;;;36.88;19.15;;;4.10;99.90;;;;;;1810756;78;21190;-75